Time;durP1;ratioP1;P1;durP2;ratioP2;P2;SDS_P1;SDS_P2;PMS_P1;PMS_P2;Temp;Humidity;BMP_temperature;BMP_pressure;BME280_temperature;BME280_humidity;BME280_pressure;Samples;Min_cycle;Max_cycle;Signal;HPM_P1;HPM_P2
2021/06/22 00:02:19;;;;;;;13.70;7.60;;;;;;;22.48;68.79;99877.22;4829811;29;20046;-49
2021/06/22 00:04:45;;;;;;;21.88;8.13;;;;;;;22.43;69.18;99876.75;4828471;29;20429;-48
2021/06/22 00:07:14;;;;;;;17.55;8.15;;;;;;;22.38;69.30;99874.47;4827497;29;20133;-49
2021/06/22 00:09:40;;;;;;;20.48;8.15;;;;;;;22.35;69.42;99877.34;4825005;29;20049;-51
2021/06/22 00:12:08;;;;;;;15.98;7.95;;;;;;;22.31;69.69;99891.81;4821088;29;20518;-49
2021/06/22 00:14:33;;;;;;;18.73;8.65;;;;;;;22.29;69.99;99877.00;4821198;29;20518;-50
2021/06/22 00:16:59;;;;;;;14.77;7.85;;;;;;;22.24;70.22;99881.84;4821473;29;20053;-48
2021/06/22 00:19:25;;;;;;;22.25;8.68;;;;;;;22.21;70.49;99882.91;4820916;29;20054;-49
2021/06/22 00:21:50;;;;;;;22.05;8.00;;;;;;;22.19;70.53;99884.00;4821036;29;20048;-47
2021/06/22 00:24:16;;;;;;;20.65;8.80;;;;;;;22.18;70.92;99891.09;4820621;29;20035;-47
2021/06/22 00:26:42;;;;;;;19.98;8.88;;;;;;;22.16;71.17;99889.53;4818490;29;20049;-50
2021/06/22 00:29:07;;;;;;;18.20;9.05;;;;;;;22.13;71.10;99889.78;4821371;29;20042;-47
2021/06/22 00:31:33;;;;;;;17.70;9.05;;;;;;;22.11;71.59;99886.41;4820129;29;20138;-46
2021/06/22 00:33:59;;;;;;;23.45;8.75;;;;;;;22.09;71.56;99893.59;4819587;29;20617;-49
2021/06/22 00:36:24;;;;;;;21.13;8.95;;;;;;;22.07;71.45;99883.16;4821527;29;20053;-49
2021/06/22 00:38:50;;;;;;;22.60;9.10;;;;;;;22.04;71.69;99891.31;4820705;29;20050;-49
2021/06/22 00:41:16;;;;;;;18.38;9.20;;;;;;;22.01;71.82;99890.72;4819342;29;20042;-48
2021/06/22 00:43:43;;;;;;;21.17;8.48;;;;;;;21.98;71.97;99900.59;4819173;29;20657;-48
2021/06/22 00:46:08;;;;;;;19.25;9.20;;;;;;;21.97;72.48;99898.09;4818181;29;20106;-49
2021/06/22 00:48:34;;;;;;;17.60;9.02;;;;;;;21.96;72.55;99901.69;4820872;29;20058;-48
2021/06/22 00:51:00;;;;;;;22.13;9.38;;;;;;;21.93;72.72;99897.41;4818400;29;20121;-49
2021/06/22 00:53:26;;;;;;;21.25;8.45;;;;;;;21.92;72.75;99905.50;4820533;29;20091;-49
2021/06/22 00:55:55;;;;;;;18.10;8.45;;;;;;;21.91;72.87;99902.00;4820472;29;20098;-51
2021/06/22 01:01:30;;;;;;;19.58;8.98;;;;;;;21.91;73.05;99896.72;4822504;24;20519;-51
2021/06/22 01:03:57;;;;;;;18.75;8.73;;;;;;;21.90;73.17;99896.81;4807855;29;20430;-49
2021/06/22 01:06:23;;;;;;;16.42;8.32;;;;;;;21.89;73.42;99897.78;4812261;29;20053;-51
2021/06/22 01:09:34;;;;;;;17.23;8.55;;;;;;;21.87;73.51;99899.72;5276188;24;20053;31
2021/06/22 01:12:00;;;;;;;11.60;8.50;;;;;;;21.85;73.29;99897.19;4756267;30;20087;-48
2021/06/22 01:14:26;;;;;;;17.20;8.50;;;;;;;21.85;73.57;99893.69;4762140;30;20051;-48
2021/06/22 01:16:54;;;;;;;20.90;9.13;;;;;;;21.83;74.23;99890.31;4747698;30;20169;-49
2021/06/22 01:19:21;;;;;;;17.00;9.55;;;;;;;21.84;74.48;99895.50;4747972;30;20540;-52
2021/06/22 01:21:54;;;;;;;19.05;9.00;;;;;;;21.84;74.56;99897.31;4762309;30;20114;-51
2021/06/22 01:24:44;;;;;;;13.73;8.60;;;;;;;21.81;74.66;99906.34;4751076;30;20063;-48
2021/06/22 01:27:12;;;;;;;18.48;8.88;;;;;;;21.79;74.71;99902.94;4748793;30;20052;-50
2021/06/22 01:29:37;;;;;;;20.42;9.15;;;;;;;21.80;75.03;99901.16;4748051;30;20055;-48
2021/06/22 01:32:07;;;;;;;20.58;9.18;;;;;;;21.80;75.16;99902.00;4744555;30;20052;-49
2021/06/22 01:34:34;;;;;;;21.27;9.40;;;;;;;21.79;75.11;99902.94;4758071;30;20531;-49
2021/06/22 01:37:01;;;;;;;17.77;10.00;;;;;;;21.80;74.98;99906.44;4746962;30;20055;-49
2021/06/22 01:42:32;;;;;;;23.13;9.77;;;;;;;21.83;74.80;99912.34;4857606;24;20062;-51
2021/06/22 01:44:58;;;;;;;24.60;9.82;;;;;;;21.82;74.84;99915.13;4819870;29;20051;-49
2021/06/22 01:47:24;;;;;;;23.63;10.23;;;;;;;21.86;74.62;99917.41;4818753;29;20142;-48
2021/06/22 01:50:01;;;;;;;17.77;10.20;;;;;;;21.88;74.55;99915.47;4819565;29;20057;-51
2021/06/22 01:52:32;;;;;;;30.58;9.75;;;;;;;21.89;74.30;99927.75;4815964;29;20126;-51
2021/06/22 01:54:59;;;;;;;18.75;9.27;;;;;;;21.92;74.05;99924.88;4815871;29;20502;-51
2021/06/22 01:57:26;;;;;;;20.88;10.20;;;;;;;21.96;73.99;99928.16;4818501;29;20122;-48
2021/06/22 02:00:00;;;;;;;26.55;10.00;;;;;;;21.97;74.26;99929.84;4819044;29;20053;-47
2021/06/22 02:02:56;;;;;;;22.33;9.30;;;;;;;21.99;73.99;99935.84;5127455;24;20608;-47
2021/06/22 02:05:23;;;;;;;19.95;9.57;;;;;;;21.99;74.05;99933.22;4832021;29;20046;-52
2021/06/22 02:07:49;;;;;;;19.65;8.80;;;;;;;22.02;74.06;99926.84;4817822;29;20048;-51
2021/06/22 02:10:19;;;;;;;23.85;10.10;;;;;;;22.05;73.97;99930.09;4817369;29;20046;-51
2021/06/22 02:13:10;;;;;;;22.85;9.63;;;;;;;22.07;73.95;99928.19;4810762;29;20153;-49
2021/06/22 02:15:42;;;;;;;24.90;8.93;;;;;;;22.10;73.80;99933.22;4818474;29;20656;-49
2021/06/22 02:18:09;;;;;;;20.60;9.20;;;;;;;22.14;73.48;99931.19;4804271;29;20162;-49
2021/06/22 02:20:36;;;;;;;24.45;9.35;;;;;;;22.18;73.25;99930.00;4803507;29;20137;-47
2021/06/22 02:23:03;;;;;;;19.88;9.02;;;;;;;22.20;73.25;99935.97;4803109;29;20138;-48
2021/06/22 02:25:29;;;;;;;21.77;8.77;;;;;;;22.22;73.31;99937.56;4810973;29;20054;-47
2021/06/22 02:28:04;;;;;;;20.60;8.90;;;;;;;22.26;73.01;99941.66;4825007;29;20050;-48
2021/06/22 02:30:31;;;;;;;20.98;9.70;;;;;;;22.29;73.22;99936.13;4812053;29;20055;-47
2021/06/22 02:32:57;;;;;;;20.73;9.50;;;;;;;22.34;72.68;99944.56;4802535;29;20051;-48
2021/06/22 02:35:24;;;;;;;20.23;9.25;;;;;;;22.38;72.51;99937.19;4799867;29;20054;-48
2021/06/22 02:37:56;;;;;;;22.63;9.23;;;;;;;22.40;72.41;99949.34;4801616;29;20098;-49
2021/06/22 02:40:24;;;;;;;28.73;10.13;;;;;;;22.44;72.11;99943.81;4814402;29;20409;-50
2021/06/22 02:42:54;;;;;;;17.83;9.02;;;;;;;22.47;72.07;99944.41;4802520;29;20047;-49
2021/06/22 02:45:20;;;;;;;19.30;9.98;;;;;;;22.50;71.84;99949.50;4818897;29;20047;-49
2021/06/22 02:47:47;;;;;;;22.70;10.32;;;;;;;22.53;71.55;99951.88;4807960;29;20090;-46
2021/06/22 02:50:15;;;;;;;20.60;10.07;;;;;;;22.57;71.58;99952.47;4821914;29;20047;-47
2021/06/22 02:52:41;;;;;;;17.02;9.27;;;;;;;22.63;71.27;99952.00;4806956;29;20047;-49
2021/06/22 02:55:19;;;;;;;27.58;10.70;;;;;;;22.67;71.25;99950.78;4800100;29;20051;-47
2021/06/22 02:57:57;;;;;;;26.98;10.30;;;;;;;22.72;71.19;99952.13;4815235;29;20450;-47
2021/06/22 03:00:27;;;;;;;24.10;10.77;;;;;;;22.76;71.15;99944.78;4829856;29;20110;-49
2021/06/22 03:02:55;;;;;;;23.80;10.80;;;;;;;22.80;71.05;99949.72;4800546;29;20050;-48
2021/06/22 03:05:22;;;;;;;26.25;11.02;;;;;;;22.85;70.98;99946.69;4815409;29;20057;-47
2021/06/22 03:07:48;;;;;;;17.33;9.95;;;;;;;22.90;70.79;99951.63;4830716;29;20453;-48
2021/06/22 03:10:17;;;;;;;27.10;11.30;;;;;;;22.95;71.09;99938.81;4831482;29;20049;-49
2021/06/22 03:12:43;;;;;;;25.17;13.37;;;;;;;22.99;71.08;99946.41;4813761;29;20062;-48
2021/06/22 03:15:20;;;;;;;22.98;10.40;;;;;;;23.05;71.03;99945.06;4801173;29;20815;-50
2021/06/22 03:17:47;;;;;;;21.83;10.93;;;;;;;23.09;70.83;99936.72;4819666;29;20404;-47
2021/06/22 03:20:13;;;;;;;24.15;10.65;;;;;;;23.14;70.77;99946.94;4819268;29;20510;-48
2021/06/22 03:22:39;;;;;;;27.25;12.43;;;;;;;23.08;70.47;99932.38;4816515;29;20054;-50
2021/06/22 03:25:07;;;;;;;24.75;11.55;;;;;;;23.27;70.37;99946.78;4784402;29;20049;-48
2021/06/22 03:27:33;;;;;;;30.10;12.52;;;;;;;23.29;69.99;99940.38;4820431;29;20046;-50
2021/06/22 03:30:32;;;;;;;20.98;11.20;;;;;;;23.40;69.79;99937.69;4818842;29;20046;-49
2021/06/22 03:32:58;;;;;;;31.15;12.38;;;;;;;23.46;69.10;99941.66;4801503;29;20115;-49
2021/06/22 03:35:26;;;;;;;27.50;12.48;;;;;;;23.54;68.94;99947.19;4798921;29;20793;-48
2021/06/22 03:37:52;;;;;;;22.65;11.82;;;;;;;23.60;68.24;99942.19;4799004;29;20062;-48
2021/06/22 03:40:20;;;;;;;30.77;16.27;;;;;;;23.69;68.39;99945.06;4812468;29;20267;-49
2021/06/22 03:42:47;;;;;;;29.80;13.77;;;;;;;23.73;68.11;99949.97;5271363;24;20043;-50
2021/06/22 03:45:13;;;;;;;29.38;14.43;;;;;;;23.83;68.27;99948.22;4821461;29;20455;-49
2021/06/22 03:47:42;;;;;;;29.25;13.23;;;;;;;23.91;67.41;99944.94;4832959;29;20054;-49
2021/06/22 03:50:09;;;;;;;22.05;11.65;;;;;;;23.99;67.52;99961.88;4835932;29;20585;-49
2021/06/22 03:52:35;;;;;;;26.33;12.38;;;;;;;24.04;67.45;99953.50;4820488;29;20058;-50
2021/06/22 03:55:25;;;;;;;25.95;11.27;;;;;;;24.14;67.35;99958.88;4820632;29;20050;-49
2021/06/22 03:58:01;;;;;;;32.10;12.05;;;;;;;24.20;67.10;99948.59;4820452;29;20046;-49
2021/06/22 04:00:34;;;;;;;;;;;;;;;24.25;66.90;99957.00;4820432;29;20049;-46
2021/06/22 04:05:56;;;;;;;25.20;12.13;;;;;;;24.39;65.86;99959.31;4762508;30;20051;-51
2021/06/22 04:08:29;;;;;;;25.05;11.60;;;;;;;24.46;65.87;99960.47;4767333;30;20212;-48
2021/06/22 04:10:59;;;;;;;20.30;11.00;;;;;;;24.55;65.78;99960.66;4764906;30;20044;-49
2021/06/22 04:13:26;;;;;;;25.98;12.27;;;;;;;24.61;66.15;99958.28;4766974;30;20048;-48
2021/06/22 04:15:56;;;;;;;23.63;12.30;;;;;;;24.68;66.10;99956.75;4780155;30;20040;-57
2021/06/22 04:18:22;;;;;;;24.98;11.68;;;;;;;24.75;65.61;99949.09;4764331;30;20069;-48
2021/06/22 04:20:48;;;;;;;25.38;11.88;;;;;;;24.81;65.20;99952.03;4763827;30;20044;-48
2021/06/22 04:23:17;;;;;;;28.63;14.18;;;;;;;24.88;65.20;99957.69;4766168;30;20074;-48
2021/06/22 04:25:43;;;;;;;30.85;12.60;;;;;;;24.95;65.19;99957.97;4765061;30;20047;-48
2021/06/22 04:28:09;;;;;;;26.10;12.00;;;;;;;25.00;64.97;99955.75;4766621;30;20467;-51
2021/06/22 04:30:37;;;;;;;23.15;11.88;;;;;;;25.08;64.46;99953.22;4766716;30;20048;-52
2021/06/22 04:33:03;;;;;;;24.85;11.27;;;;;;;25.16;64.22;99962.22;4766731;30;20051;-50
2021/06/22 04:35:30;;;;;;;30.42;16.10;;;;;;;25.26;64.08;99970.19;4765233;30;20049;-51
2021/06/22 04:37:59;;;;;;;31.05;11.43;;;;;;;25.34;63.68;99957.03;4767491;30;20044;-48
2021/06/22 04:40:26;;;;;;;25.10;11.32;;;;;;;25.42;62.49;99954.50;4766188;30;20047;-48
2021/06/22 04:42:52;;;;;;;23.55;10.38;;;;;;;25.50;63.05;99953.78;4766583;30;20055;-50
2021/06/22 04:45:17;;;;;;;24.05;11.50;;;;;;;25.59;62.94;99958.31;4767033;30;20048;-49
2021/06/22 04:47:43;;;;;;;29.55;13.57;;;;;;;25.65;62.54;99952.41;4765129;30;20128;-50
2021/06/22 04:50:09;;;;;;;19.35;10.25;;;;;;;25.72;62.70;99954.38;4766385;30;20043;-50
2021/06/22 04:52:36;;;;;;;25.20;11.02;;;;;;;25.81;62.50;99951.81;4766398;30;20504;-51
2021/06/22 04:55:02;;;;;;;26.00;10.52;;;;;;;25.90;62.39;99950.97;5255540;24;20074;-48
2021/06/22 04:57:28;;;;;;;24.05;10.02;;;;;;;25.98;62.36;99959.94;4815406;29;20034;-48
2021/06/22 04:59:54;;;;;;;17.83;10.02;;;;;;;26.07;61.70;99956.38;4817310;29;20054;-48
2021/06/22 05:02:20;;;;;;;19.65;9.45;;;;;;;26.18;61.72;99955.38;4814106;29;20047;-49
2021/06/22 05:04:46;;;;;;;17.20;7.20;;;;;;;26.28;59.92;99963.38;4818477;29;20183;-47
2021/06/22 05:07:12;;;;;;;22.02;8.88;;;;;;;26.38;59.79;99969.53;4818885;29;20141;-50
2021/06/22 05:09:37;;;;;;;16.25;7.60;;;;;;;26.47;58.04;99965.97;4820712;29;20057;-48
2021/06/22 05:12:03;;;;;;;22.00;7.50;;;;;;;26.59;57.51;99969.28;4820841;29;20050;-52
2021/06/22 05:14:29;;;;;;;19.17;7.47;;;;;;;26.70;57.38;99963.75;4818961;29;20046;-51
2021/06/22 05:16:55;;;;;;;19.17;6.53;;;;;;;26.80;54.58;99972.53;4814509;29;20055;-49
2021/06/22 05:19:20;;;;;;;15.75;5.90;;;;;;;26.90;53.11;99963.50;4814960;29;20059;-48
2021/06/22 05:21:46;;;;;;;14.25;5.97;;;;;;;27.02;52.51;99965.97;4819206;29;20129;-47
2021/06/22 05:24:12;;;;;;;15.02;5.50;;;;;;;27.12;51.93;99962.25;4819189;29;20065;-46
2021/06/22 05:26:38;;;;;;;8.85;3.85;;;;;;;27.23;49.00;99964.69;4820799;29;20065;-48
2021/06/22 05:29:03;;;;;;;10.05;4.28;;;;;;;27.32;48.80;99958.44;4820442;29;20050;-47
2021/06/22 05:31:30;;;;;;;10.88;3.90;;;;;;;27.42;48.56;99961.03;4822232;29;20054;-48
2021/06/22 05:33:56;;;;;;;14.00;4.18;;;;;;;27.53;47.77;99960.00;4823827;29;20696;-49
2021/06/22 05:36:22;;;;;;;12.45;3.60;;;;;;;27.63;47.26;99958.09;4824241;29;20044;-47
2021/06/22 05:38:47;;;;;;;13.30;3.60;;;;;;;27.74;46.46;99968.53;4824225;29;20171;-47
2021/06/22 05:41:13;;;;;;;9.57;3.47;;;;;;;27.84;45.82;99960.41;4823479;29;20046;-49
2021/06/22 05:43:39;;;;;;;10.30;3.90;;;;;;;27.94;46.25;99959.31;4823970;29;20057;-47
2021/06/22 05:46:05;;;;;;;6.85;3.53;;;;;;;28.05;45.19;99968.91;4818247;29;20046;-49
2021/06/22 05:48:31;;;;;;;12.60;3.60;;;;;;;28.10;45.02;99964.78;4819477;29;20450;-48
2021/06/22 05:50:56;;;;;;;9.07;3.97;;;;;;;28.19;44.62;99971.03;4823497;29;20047;-50
2021/06/22 05:53:22;;;;;;;10.52;3.25;;;;;;;28.28;44.60;99971.91;4819435;29;20053;-49
2021/06/22 05:55:48;;;;;;;11.63;3.60;;;;;;;28.38;44.15;99965.44;4823158;29;20065;-50
2021/06/22 05:58:14;;;;;;;6.40;3.30;;;;;;;28.50;43.85;99960.66;4821125;29;20060;-49
2021/06/22 06:00:40;;;;;;;10.90;3.60;;;;;;;28.61;43.61;99961.22;4818612;29;20043;-52
2021/06/22 06:03:06;;;;;;;6.15;3.00;;;;;;;28.70;43.19;99947.84;4806144;29;20051;-53
2021/06/22 06:05:32;;;;;;;4.07;2.70;;;;;;;28.80;42.40;99951.25;4816330;29;20139;-52
2021/06/22 06:07:58;;;;;;;7.45;2.85;;;;;;;28.86;41.83;99953.28;4826799;29;20177;-52
2021/06/22 06:10:24;;;;;;;8.93;3.63;;;;;;;28.96;41.76;99954.81;4823079;29;20467;-49
2021/06/22 06:12:50;;;;;;;8.02;2.85;;;;;;;29.04;41.27;99956.69;4822786;29;20050;-52
2021/06/22 06:15:16;;;;;;;8.88;2.58;;;;;;;29.12;41.08;99958.53;4820752;29;20098;-50
2021/06/22 06:17:42;;;;;;;4.32;2.30;;;;;;;29.22;40.84;99960.06;4823077;29;20137;-48
2021/06/22 06:20:10;;;;;;;6.60;2.50;;;;;;;29.29;40.53;99965.59;4822873;29;20191;-52
2021/06/22 06:22:36;;;;;;;6.80;2.45;;;;;;;29.34;40.21;99948.06;4822832;29;20042;-49
2021/06/22 06:25:05;;;;;;;7.30;2.55;;;;;;;29.50;40.14;99957.09;4825697;29;20034;-51
2021/06/22 06:30:21;;;;;;;8.07;2.80;;;;;;;29.69;40.41;99954.06;4825263;29;22254;-54
2021/06/22 06:32:48;;;;;;;6.53;2.40;;;;;;;29.88;39.84;99951.06;4822672;29;20053;-53
2021/06/22 06:35:14;;;;;;;10.07;2.58;;;;;;;30.01;38.78;99951.38;4822401;29;20053;-52
2021/06/22 06:37:40;;;;;;;8.02;2.50;;;;;;;30.13;39.17;99950.03;4822631;29;20609;-51
2021/06/22 06:40:07;;;;;;;8.27;2.78;;;;;;;30.37;39.27;99941.06;4821837;29;20133;-50
2021/06/22 06:42:33;;;;;;;7.35;2.55;;;;;;;30.62;37.51;99949.84;4819038;29;20094;-57
2021/06/22 06:44:58;;;;;;;9.07;2.95;;;;;;;31.03;37.76;99954.06;4829285;29;20162;-53
2021/06/22 06:47:24;;;;;;;5.13;2.50;;;;;;;31.66;36.08;99949.41;4828275;29;20533;-52
2021/06/22 06:49:50;;;;;;;11.57;2.83;;;;;;;32.27;34.98;99951.84;4825667;29;20042;-54
2021/06/22 06:52:15;;;;;;;6.35;3.00;;;;;;;32.96;33.70;99943.41;4824857;29;20539;-56
2021/06/22 06:54:41;;;;;;;10.95;2.90;;;;;;;33.79;33.18;99945.50;4819802;29;20050;-54
2021/06/22 06:57:07;;;;;;;6.03;2.90;;;;;;;34.53;31.77;99948.47;4824328;29;20100;-55
2021/06/22 06:59:33;;;;;;;9.98;3.42;;;;;;;35.26;30.73;99950.41;4826167;29;20060;-54
2021/06/22 07:01:59;;;;;;;8.95;3.40;;;;;;;36.07;30.21;99949.16;4826055;29;20046;-55
2021/06/22 07:04:24;;;;;;;12.27;3.80;;;;;;;36.93;28.87;99948.94;4826617;29;20551;-52
2021/06/22 07:06:50;;;;;;;9.80;3.47;;;;;;;37.70;27.87;99956.78;4823765;29;20103;-52
2021/06/22 07:09:16;;;;;;;10.25;3.10;;;;;;;38.21;26.92;99955.69;4831562;29;20057;-56
2021/06/22 07:11:41;;;;;;;12.48;3.47;;;;;;;38.62;26.50;99957.78;4812005;29;20082;-54
2021/06/22 07:14:07;;;;;;;15.73;3.85;;;;;;;39.06;25.37;99956.56;4814129;29;20050;-58
2021/06/22 07:16:33;;;;;;;10.68;3.58;;;;;;;39.46;25.21;99956.84;4812168;29;20465;-56
2021/06/22 07:18:59;;;;;;;11.98;4.25;;;;;;;39.93;24.72;99956.91;4812891;29;20031;-53
2021/06/22 07:21:25;;;;;;;10.32;3.55;;;;;;;40.23;24.10;99957.63;4814345;29;20078;-54
2021/06/22 07:23:52;;;;;;;10.80;3.92;;;;;;;40.88;23.12;99949.97;4823933;29;20544;-54
2021/06/22 07:26:18;;;;;;;10.13;3.67;;;;;;;41.21;23.20;99951.16;4828050;29;20049;-53
2021/06/22 07:28:44;;;;;;;12.13;3.78;;;;;;;41.45;23.09;99952.69;4826246;29;20094;-53
2021/06/22 07:31:11;;;;;;;19.55;3.65;;;;;;;41.71;22.55;99943.84;4820489;29;20402;-53
2021/06/22 07:33:37;;;;;;;9.02;3.65;;;;;;;42.12;22.53;99958.13;4816275;29;20161;-53
2021/06/22 07:36:03;;;;;;;12.95;4.47;;;;;;;42.17;21.89;99945.38;4815635;29;20050;-47
2021/06/22 07:38:29;;;;;;;12.60;4.65;;;;;;;42.64;21.52;99951.19;4817572;29;20053;-53
2021/06/22 07:40:55;;;;;;;19.88;4.80;;;;;;;42.98;21.16;99953.75;4815019;29;20111;-51
2021/06/22 07:43:21;;;;;;;12.77;4.10;;;;;;;43.45;20.89;99953.97;4814822;29;20083;-54
2021/06/22 07:45:47;;;;;;;18.20;4.88;;;;;;;43.84;20.87;99958.13;4813552;29;20038;-51
2021/06/22 07:48:13;;;;;;;12.57;4.13;;;;;;;44.02;20.33;99956.91;4812403;29;20250;-51
2021/06/22 07:50:38;;;;;;;11.65;4.75;;;;;;;44.12;20.42;99962.47;4814495;29;20047;-54
2021/06/22 07:53:05;;;;;;;12.35;4.38;;;;;;;44.00;20.17;99964.56;4812338;29;20163;-54
2021/06/22 07:55:31;;;;;;;13.57;4.57;;;;;;;44.33;20.28;99957.94;4813273;29;20065;-52
2021/06/22 07:57:57;;;;;;;12.40;4.10;;;;;;;44.52;19.94;99964.59;4815344;29;20052;-54
2021/06/22 08:00:42;;;;;;;11.88;3.72;;;;;;;44.40;19.30;99963.97;4812115;29;20149;-53
2021/06/22 08:03:16;;;;;;;10.50;3.80;;;;;;;43.94;19.17;99964.81;4824382;29;20142;-54
2021/06/22 08:05:42;;;;;;;17.27;4.10;;;;;;;43.92;18.22;99954.91;4821728;29;20049;-53
2021/06/22 08:08:09;;;;;;;9.30;4.23;;;;;;;44.37;18.21;99963.69;4822671;29;20046;-53
2021/06/22 08:10:35;;;;;;;12.75;4.03;;;;;;;44.78;17.91;99962.78;4829950;29;20050;-52
2021/06/22 08:13:02;;;;;;;11.50;4.43;;;;;;;45.02;18.53;99961.19;4822413;29;20090;-49
2021/06/22 08:15:28;;;;;;;14.52;5.30;;;;;;;45.35;18.47;99961.81;4816242;29;20084;-50
2021/06/22 08:17:55;;;;;;;15.70;4.30;;;;;;;45.26;18.25;99957.97;4817137;29;20601;-53
2021/06/22 08:20:21;;;;;;;12.30;3.78;;;;;;;45.29;17.81;99969.22;4821017;29;20049;-54
2021/06/22 08:22:52;;;;;;;17.65;5.00;;;;;;;45.23;18.01;99963.97;4821174;29;20534;-55
2021/06/22 08:25:19;;;;;;;13.07;4.13;;;;;;;45.10;17.90;99960.69;4821974;29;20395;-57
2021/06/22 08:27:45;;;;;;;13.68;4.72;;;;;;;45.51;17.77;99961.56;4822031;29;20054;-55
2021/06/22 08:30:11;;;;;;;14.10;4.55;;;;;;;45.85;17.34;99961.81;4820879;29;20526;-55
2021/06/22 08:32:37;;;;;;;10.40;4.47;;;;;;;46.22;17.74;99966.19;4820483;29;20052;-54
2021/06/22 08:35:03;;;;;;;14.52;4.75;;;;;;;46.18;17.60;99960.41;4819773;29;20137;-56
2021/06/22 08:37:30;;;;;;;8.00;5.00;;;;;;;46.41;17.59;99964.44;4821784;29;20046;-57
2021/06/22 08:39:56;;;;;;;11.80;4.70;;;;;;;46.74;17.34;99960.19;4821309;29;20053;-55
2021/06/22 08:42:23;;;;;;;13.75;4.78;;;;;;;46.67;17.33;99960.50;4835465;29;20050;-56
2021/06/22 08:44:50;;;;;;;24.17;4.93;;;;;;;46.68;17.02;99951.16;4827703;29;20520;-55
2021/06/22 08:47:25;;;;;;;11.25;4.30;;;;;;;46.68;16.88;99961.34;4825184;29;20422;-55
2021/06/22 08:49:52;;;;;;;14.65;4.95;;;;;;;46.53;17.62;99967.72;4821298;29;20055;-58
2021/06/22 08:52:23;;;;;;;;;;;;;;;45.90;17.33;99955.50;4821549;29;20530;-57
2021/06/22 08:54:54;;;;;;;15.73;4.75;;;;;;;45.15;17.58;99954.38;5280935;24;19956;-54
2021/06/22 08:57:21;;;;;;;10.40;4.95;;;;;;;45.06;17.63;99943.13;4813618;29;20078;-56
2021/06/22 08:59:47;;;;;;;16.15;4.72;;;;;;;45.66;17.93;99943.41;4817310;29;20046;-56
2021/06/22 09:02:14;;;;;;;13.53;4.77;;;;;;;45.97;17.25;99942.28;4821157;29;20085;-59
2021/06/22 09:04:40;;;;;;;12.77;5.70;;;;;;;46.18;17.39;99940.31;4820794;29;20300;-56
2021/06/22 09:07:05;;;;;;;16.15;4.95;;;;;;;46.07;17.02;99944.16;4820398;29;20554;-56
2021/06/22 09:09:39;;;;;;;10.45;4.70;;;;;;;45.74;17.66;99943.69;4821798;29;20046;-58
2021/06/22 09:12:10;;;;;;;17.38;5.57;;;;;;;45.82;17.60;99937.66;4829570;29;20081;-58
2021/06/22 09:14:40;;;;;;;16.40;4.65;;;;;;;46.73;16.40;99931.03;4816419;29;20055;-58
2021/06/22 09:17:06;;;;;;;12.40;5.60;;;;;;;47.25;16.53;99943.34;4817035;29;20556;-58
2021/06/22 09:19:32;;;;;;;13.00;5.35;;;;;;;47.53;16.45;99942.56;4821013;29;20094;-59
2021/06/22 09:22:15;;;;;;;17.00;5.30;;;;;;;47.89;16.55;99940.34;4821221;29;20047;-58
2021/06/22 09:25:01;;;;;;;7.53;5.45;;;;;;;47.87;16.55;99946.13;4821146;29;20427;-58
2021/06/22 09:27:46;;;;;;;12.35;5.80;;;;;;;46.89;16.53;99932.56;4821397;29;20081;-58
2021/06/22 09:30:13;;;;;;;16.55;5.45;;;;;;;46.57;16.88;99922.03;4821171;29;20114;-58
2021/06/22 09:32:40;;;;;;;11.75;5.38;;;;;;;46.61;16.82;99930.53;4820179;29;20078;-59
2021/06/22 09:35:19;;;;;;;17.83;6.35;;;;;;;46.99;16.86;99918.78;4816596;29;20437;-58
2021/06/22 09:37:53;;;;;;;16.33;5.90;;;;;;;46.81;16.71;99926.84;4820619;29;20137;-58
2021/06/22 09:40:29;;;;;;;13.32;5.57;;;;;;;46.87;17.03;99920.19;4820916;29;20057;-58
2021/06/22 09:42:57;;;;;;;15.52;5.85;;;;;;;47.13;16.73;99919.75;4820549;29;20491;-58
2021/06/22 09:48:26;;;;;;;18.27;5.97;;;;;;;47.28;15.94;99921.59;4763194;27;20473;-60
2021/06/22 09:50:52;;;;;;;16.77;5.40;;;;;;;47.52;16.17;99921.66;4802073;29;20042;-58
2021/06/22 09:53:29;;;;;;;13.63;5.90;;;;;;;48.01;16.14;99921.44;4801219;29;20050;-58
2021/06/22 09:55:55;;;;;;;13.23;6.50;;;;;;;48.52;15.74;99924.44;4802515;29;20054;-58
2021/06/22 09:58:38;;;;;;;21.08;6.47;;;;;;;47.62;15.70;99917.97;4802052;29;20099;-59
2021/06/22 10:01:04;;;;;;;19.70;5.80;;;;;;;47.93;15.70;99920.16;4802166;29;20050;-58
2021/06/22 10:03:39;;;;;;;18.95;6.22;;;;;;;47.87;15.90;99912.22;4801705;29;20038;-58
2021/06/22 10:06:06;;;;;;;20.73;6.15;;;;;;;47.88;15.96;99913.88;4801987;29;20047;-58
2021/06/22 10:08:58;;;;;;;18.63;6.95;;;;;;;48.46;15.19;99916.53;4802831;29;20431;-57
2021/06/22 10:11:41;;;;;;;18.48;6.78;;;;;;;48.79;15.09;99907.22;4803090;29;20066;-59
2021/06/22 10:14:11;;;;;;;11.85;6.20;;;;;;;49.19;14.89;99919.59;4802061;29;20054;-58
2021/06/22 10:16:37;;;;;;;21.15;6.95;;;;;;;49.55;14.96;99911.53;4802231;29;20074;-58
2021/06/22 10:19:06;;;;;;;15.73;6.50;;;;;;;49.75;15.05;99911.19;4804563;29;20126;-57
2021/06/22 10:21:34;;;;;;;26.05;7.65;;;;;;;49.71;14.06;99912.06;4804791;29;20050;-58
2021/06/22 10:24:01;;;;;;;15.48;6.45;;;;;;;49.18;14.53;99915.19;4805481;29;20050;-58
2021/06/22 10:26:29;;;;;;;17.17;6.95;;;;;;;48.77;14.79;99913.06;4805027;29;20100;-58
2021/06/22 10:29:00;;;;;;;18.50;6.13;;;;;;;48.21;15.10;99904.66;4805437;29;20066;-58
2021/06/22 10:31:26;;;;;;;16.45;6.57;;;;;;;48.10;14.88;99908.69;4805538;29;20043;-58
2021/06/22 10:33:53;;;;;;;19.42;7.30;;;;;;;47.67;15.78;99899.47;4805067;29;20499;-58
2021/06/22 10:36:29;;;;;;;19.67;6.47;;;;;;;48.08;15.00;99896.28;4804676;29;20089;-58
2021/06/22 10:38:58;;;;;;;19.17;6.65;;;;;;;47.82;15.21;99901.25;4819115;29;20043;-58
2021/06/22 10:41:24;;;;;;;17.17;6.70;;;;;;;47.38;15.27;99895.88;4801263;29;20043;-59
2021/06/22 10:43:50;;;;;;;18.90;6.43;;;;;;;47.16;15.36;99891.63;4787155;29;20130;-58
2021/06/22 10:46:18;;;;;;;19.38;6.00;;;;;;;47.25;15.57;99899.28;4785558;29;20143;-57
2021/06/22 10:48:51;;;;;;;19.77;6.57;;;;;;;47.12;15.42;99885.03;4803094;29;20095;-59
2021/06/22 10:51:35;;;;;;;19.77;5.97;;;;;;;46.92;16.01;99885.22;4805541;29;20051;-60
2021/06/22 10:54:01;;;;;;;15.93;6.40;;;;;;;47.78;15.36;99883.66;4804852;29;20051;-59
2021/06/22 10:56:28;;;;;;;15.95;6.60;;;;;;;47.93;14.98;99886.22;4804568;29;20042;-58
2021/06/22 10:59:12;;;;;;;19.77;7.82;;;;;;;48.17;15.63;99892.56;4804971;29;20047;-60
2021/06/22 11:01:53;;;;;;;18.17;7.07;;;;;;;48.49;15.43;99882.78;4804460;29;20043;-59
2021/06/22 11:04:20;;;;;;;24.38;8.07;;;;;;;48.90;14.80;99891.31;4804653;29;20055;-58
2021/06/22 11:07:18;;;;;;;;;;;;;;;48.22;15.01;99884.22;4805579;29;20073;-59
2021/06/22 11:10:11;;;;;;;17.73;7.10;;;;;;;48.03;14.98;99886.13;4811866;29;19928;-59
2021/06/22 11:12:48;;;;;;;19.27;6.50;;;;;;;48.39;15.45;99876.31;4804802;29;20051;-58
2021/06/22 11:15:13;;;;;;;31.63;7.00;;;;;;;48.57;14.63;99877.44;4804898;29;20074;-58
2021/06/22 11:17:42;;;;;;;16.33;6.33;;;;;;;47.89;14.63;99869.47;4804596;29;20042;-58
2021/06/22 11:20:16;;;;;;;24.02;7.88;;;;;;;47.63;15.25;99868.13;4804546;29;20043;-58
2021/06/22 11:23:01;;;;;;;21.90;7.45;;;;;;;48.02;14.53;99876.22;4804186;29;20054;-59
2021/06/22 11:25:50;;;;;;;14.52;6.38;;;;;;;47.01;14.82;99877.16;4804233;29;20149;-59
2021/06/22 11:28:17;;;;;;;19.23;5.90;;;;;;;46.29;15.37;99865.75;4804433;29;20055;-58
2021/06/22 11:30:46;;;;;;;18.55;6.72;;;;;;;46.43;15.43;99865.13;4803902;29;20098;-58
2021/06/22 11:33:44;;;;;;;17.73;6.97;;;;;;;47.15;15.21;99870.72;4804016;29;20115;-58
2021/06/22 11:36:19;;;;;;;26.20;7.07;;;;;;;47.49;15.11;99864.34;4803760;29;20055;-57
2021/06/22 11:39:06;;;;;;;12.90;6.50;;;;;;;48.13;15.25;99860.34;4818036;29;20403;-58
2021/06/22 11:41:33;;;;;;;20.52;7.00;;;;;;;48.00;14.67;99872.91;4803514;29;20058;-59
2021/06/22 11:44:08;;;;;;;18.65;6.85;;;;;;;47.84;14.77;99871.47;4804003;29;20055;-58
2021/06/22 11:46:35;;;;;;;20.20;6.95;;;;;;;47.85;15.19;99865.63;4803634;29;20158;-58
2021/06/22 11:49:02;;;;;;;21.33;6.93;;;;;;;47.98;14.83;99859.41;4803758;29;20051;-58
2021/06/22 11:51:46;;;;;;;;;;;;;;;47.90;14.85;99857.28;4804569;29;20055;-59